createdAt,value
2023-08-11T00:00:22.901Z,58.03
2023-08-11T00:02:53.357Z,57.90
2023-08-11T00:05:20.724Z,58.08
2023-08-11T00:07:52.194Z,58.05
2023-08-11T00:10:20.904Z,58.14
2023-08-11T00:12:48.639Z,58.18
2023-08-11T00:15:15.290Z,58.19
2023-08-11T00:17:42.191Z,58.39
2023-08-11T00:20:10.007Z,58.19
2023-08-11T00:22:39.151Z,58.31
2023-08-11T00:25:06.877Z,58.34
2023-08-11T00:27:33.555Z,58.44
2023-08-11T00:30:00.344Z,58.31
2023-08-11T00:32:27.057Z,58.31
2023-08-11T00:34:53.753Z,58.36
2023-08-11T00:37:20.351Z,58.66
2023-08-11T00:39:47.094Z,58.70
2023-08-11T00:42:14.108Z,58.55
2023-08-11T00:44:40.955Z,58.77
2023-08-11T00:47:08.737Z,58.84
2023-08-11T00:49:36.054Z,58.73
2023-08-11T00:52:04.552Z,58.80
2023-08-11T00:54:31.578Z,58.74
2023-08-11T00:56:58.391Z,58.87
2023-08-11T00:59:26.662Z,59.10
2023-08-11T01:01:53.401Z,59.19
2023-08-11T01:04:21.856Z,59.17
2023-08-11T01:07:17.374Z,59.18
2023-08-11T01:09:54.723Z,59.28
2023-08-11T01:12:32.344Z,59.45
2023-08-11T01:15:08.203Z,59.44
2023-08-11T01:17:36.566Z,59.31
2023-08-11T01:20:09.701Z,59.45
2023-08-11T01:22:38.061Z,59.51
2023-08-11T01:25:06.998Z,59.34
2023-08-11T01:27:37.635Z,59.57
2023-08-11T01:30:07.321Z,59.54
2023-08-11T01:32:33.981Z,59.70
2023-08-11T01:35:00.808Z,59.73
2023-08-11T01:37:27.746Z,59.68
2023-08-11T01:39:54.524Z,59.88
2023-08-11T01:42:21.769Z,59.78
2023-08-11T01:44:49.516Z,59.80
2023-08-11T01:47:18.154Z,59.93
2023-08-11T01:49:45.683Z,59.94
2023-08-11T01:52:13.286Z,60.08
2023-08-11T01:54:43.684Z,60.14
2023-08-11T01:57:10.901Z,60.08
2023-08-11T01:59:37.519Z,60.19
2023-08-11T02:02:04.315Z,60.02
2023-08-11T02:04:30.975Z,59.93
2023-08-11T02:06:57.582Z,59.94
2023-08-11T02:09:24.192Z,60.14
2023-08-11T02:11:50.741Z,60.28
2023-08-11T02:14:17.387Z,60.27
2023-08-11T02:16:57.096Z,60.34
2023-08-11T02:19:23.671Z,60.47
2023-08-11T02:21:51.634Z,60.54
2023-08-11T02:24:18.263Z,60.53
2023-08-11T02:26:44.947Z,60.58
2023-08-11T02:29:11.576Z,60.49
2023-08-11T02:31:38.216Z,60.60
2023-08-11T02:34:04.894Z,60.63
2023-08-11T02:36:31.582Z,60.77
2023-08-11T02:38:58.241Z,60.73
2023-08-11T02:41:25.097Z,60.79
2023-08-11T02:43:51.728Z,60.73
2023-08-11T02:46:18.349Z,60.89
2023-08-11T02:48:44.972Z,60.81
2023-08-11T02:51:11.518Z,60.84
2023-08-11T02:53:38.114Z,60.94
2023-08-11T02:56:07.949Z,60.93
2023-08-11T02:58:34.832Z,61.01
2023-08-11T03:01:02.019Z,60.95
2023-08-11T03:03:29.964Z,61.05
2023-08-11T03:05:59.223Z,61.12
2023-08-11T03:08:26.226Z,61.15
2023-08-11T03:10:57.228Z,61.13
2023-08-11T03:13:30.269Z,61.15
2023-08-11T03:15:57.565Z,61.33
2023-08-11T03:18:27.671Z,61.15
2023-08-11T03:21:00.485Z,61.26
2023-08-11T03:23:33.324Z,61.31
2023-08-11T03:25:59.921Z,61.29
2023-08-11T03:28:28.272Z,61.14
2023-08-11T03:30:55.956Z,61.14
2023-08-11T03:33:22.612Z,61.27
2023-08-11T03:35:53.734Z,61.29
2023-08-11T03:38:20.429Z,61.47
2023-08-11T03:40:48.226Z,61.55
2023-08-11T03:43:14.955Z,61.57
2023-08-11T03:45:41.944Z,61.66
2023-08-11T03:48:11.777Z,61.77
2023-08-11T03:50:38.377Z,61.71
2023-08-11T03:53:04.979Z,61.75
2023-08-11T03:55:31.790Z,61.84
2023-08-11T03:57:58.483Z,61.86
2023-08-11T04:00:26.260Z,61.84
2023-08-11T04:03:04.828Z,61.99
2023-08-11T04:05:31.680Z,61.90
2023-08-11T04:07:58.341Z,62.01
2023-08-11T04:10:25.669Z,62.12
2023-08-11T04:12:52.567Z,62.03
2023-08-11T04:15:19.671Z,62.14
2023-08-11T04:17:46.283Z,62.16
2023-08-11T04:20:14.593Z,62.22
2023-08-11T04:22:42.282Z,62.22
2023-08-11T04:25:11.703Z,62.24
2023-08-11T04:27:41.664Z,62.32
2023-08-11T04:30:11.263Z,62.22
2023-08-11T04:32:38.990Z,62.30
2023-08-11T04:35:09.500Z,62.35
2023-08-11T04:37:37.757Z,62.51
2023-08-11T04:40:09.784Z,62.43
2023-08-11T04:42:36.478Z,62.50
2023-08-11T04:45:03.569Z,62.16
2023-08-11T04:47:31.260Z,62.41
2023-08-11T04:49:58.754Z,62.46
2023-08-11T04:52:25.408Z,62.38
2023-08-11T04:54:52.157Z,62.50
2023-08-11T04:57:18.783Z,62.37
2023-08-11T04:59:46.901Z,62.40
2023-08-11T05:02:14.323Z,62.50
2023-08-11T05:04:41.320Z,62.38
2023-08-11T05:07:08.378Z,62.48
2023-08-11T05:09:38.781Z,62.50
2023-08-11T05:12:06.160Z,62.58
2023-08-11T05:14:33.133Z,62.52
2023-08-11T05:17:02.216Z,62.65
2023-08-11T05:19:30.597Z,62.67
2023-08-11T05:21:57.213Z,62.60
2023-08-11T05:24:23.814Z,62.53
2023-08-11T05:26:50.441Z,62.45
2023-08-11T05:29:17.029Z,62.49
2023-08-11T05:31:44.021Z,62.64
2023-08-11T05:34:11.017Z,62.67
2023-08-11T05:36:38.160Z,62.69
2023-08-11T05:39:05.055Z,62.85
2023-08-11T05:41:31.826Z,62.69
2023-08-11T05:43:58.488Z,62.63
2023-08-11T05:46:25.220Z,62.85
2023-08-11T05:48:52.418Z,62.77
2023-08-11T05:51:19.181Z,62.85
2023-08-11T05:53:45.965Z,62.89
2023-08-11T05:56:12.580Z,62.89
2023-08-11T05:58:39.252Z,62.85
2023-08-11T06:01:05.979Z,62.75
2023-08-11T06:03:32.760Z,62.64
2023-08-11T06:06:02.056Z,62.62
2023-08-11T06:08:29.564Z,62.62
2023-08-11T06:10:56.720Z,62.34
2023-08-11T06:13:26.391Z,62.49
2023-08-11T06:15:53.140Z,62.44
2023-08-11T06:18:19.851Z,62.33
2023-08-11T06:20:48.517Z,62.25
2023-08-11T06:23:15.245Z,62.14
2023-08-11T06:25:43.057Z,62.19
2023-08-11T06:28:10.132Z,62.30
2023-08-11T06:30:36.854Z,62.47
2023-08-11T06:33:03.885Z,62.24
2023-08-11T06:35:31.424Z,62.18
2023-08-11T06:37:58.452Z,61.96
2023-08-11T06:40:25.181Z,62.13
2023-08-11T06:42:51.853Z,62.03
2023-08-11T06:45:19.688Z,62.10
2023-08-11T06:47:46.463Z,62.35
2023-08-11T06:50:14.425Z,62.28
2023-08-11T06:52:41.144Z,61.91
2023-08-11T06:55:08.087Z,61.92
2023-08-11T06:57:34.833Z,61.63
2023-08-11T07:00:01.622Z,61.27
2023-08-11T07:02:28.393Z,60.61
2023-08-11T07:04:55.045Z,60.24
2023-08-11T07:07:21.734Z,59.55
2023-08-11T07:09:48.384Z,58.91
2023-08-11T07:12:14.979Z,58.73
2023-08-11T07:14:43.742Z,58.43
2023-08-11T07:17:12.039Z,58.00
2023-08-11T07:19:39.082Z,56.99
2023-08-11T07:22:05.764Z,56.34
2023-08-11T07:24:32.494Z,55.87
2023-08-11T07:26:59.103Z,55.51
2023-08-11T07:29:25.744Z,54.84
2023-08-11T07:31:52.371Z,54.50
2023-08-11T07:34:19.363Z,54.16
2023-08-11T07:36:46.001Z,53.20
2023-08-11T07:39:22.890Z,52.77
2023-08-11T07:41:51.654Z,52.32
2023-08-11T07:44:18.483Z,51.34
2023-08-11T07:46:45.355Z,50.80
2023-08-11T07:49:12.187Z,50.41
2023-08-11T07:51:41.049Z,49.81
2023-08-11T07:54:07.932Z,49.34
2023-08-11T07:56:35.134Z,48.88
2023-08-11T07:59:02.027Z,48.96
2023-08-11T08:01:29.162Z,49.31
2023-08-11T08:03:57.546Z,48.19
2023-08-11T08:06:25.103Z,47.72
2023-08-11T08:08:51.768Z,46.84
2023-08-11T08:11:18.549Z,46.25
2023-08-11T08:13:45.316Z,46.00
2023-08-11T08:16:12.058Z,45.37
2023-08-11T08:18:38.721Z,45.17
2023-08-11T08:21:05.381Z,44.73
2023-08-11T08:23:31.984Z,44.25
2023-08-11T08:25:59.192Z,43.68
2023-08-11T08:28:26.120Z,43.24
2023-08-11T08:30:53.252Z,42.49
2023-08-11T08:33:19.900Z,41.85
2023-08-11T08:35:47.664Z,42.29
2023-08-11T08:38:14.274Z,42.62
2023-08-11T08:40:41.073Z,42.67
2023-08-11T08:43:09.937Z,42.27
2023-08-11T08:45:38.647Z,41.59
2023-08-11T08:48:14.411Z,40.79
2023-08-11T08:50:41.025Z,39.83
2023-08-11T08:53:07.826Z,39.36
2023-08-11T08:55:34.684Z,39.67
2023-08-11T08:58:03.159Z,39.59
2023-08-11T09:00:29.891Z,39.54
2023-08-11T09:02:58.575Z,39.43
2023-08-11T09:05:26.565Z,39.14
2023-08-11T09:07:53.927Z,38.69
2023-08-11T09:10:20.634Z,38.15
2023-08-11T09:12:49.518Z,37.37
2023-08-11T09:15:16.555Z,36.94
2023-08-11T09:17:43.566Z,36.06
2023-08-11T09:20:13.977Z,36.10
2023-08-11T09:22:41.619Z,36.07
2023-08-11T09:25:09.031Z,35.35
2023-08-11T09:27:35.822Z,35.71
2023-08-11T09:30:02.512Z,35.36
2023-08-11T09:32:33.353Z,36.25
2023-08-11T09:35:14.014Z,36.06
2023-08-11T09:37:44.945Z,35.63
2023-08-11T09:40:12.717Z,35.74
2023-08-11T09:42:39.735Z,34.89
2023-08-11T09:45:07.344Z,34.00
2023-08-11T09:47:36.834Z,33.80
2023-08-11T09:50:04.744Z,33.39
2023-08-11T09:52:36.484Z,33.33
2023-08-11T09:55:07.507Z,33.56
2023-08-11T09:57:38.487Z,33.54
2023-08-11T10:00:07.304Z,33.52
2023-08-11T10:02:37.177Z,33.59
2023-08-11T10:05:08.015Z,33.32
2023-08-11T10:07:40.348Z,32.95
2023-08-11T10:10:19.116Z,32.91
2023-08-11T10:12:53.801Z,32.69
2023-08-11T10:15:23.654Z,32.38
2023-08-11T10:17:51.134Z,31.26
2023-08-11T10:20:18.149Z,30.82
2023-08-11T10:22:44.936Z,30.49
2023-08-11T10:25:12.457Z,30.23
2023-08-11T10:27:40.627Z,30.13
2023-08-11T10:30:09.304Z,30.41
2023-08-11T10:32:36.485Z,29.79
2023-08-11T10:35:07.687Z,29.80
2023-08-11T10:37:34.983Z,29.09
2023-08-11T10:40:06.440Z,28.84
2023-08-11T10:42:33.547Z,28.29
2023-08-11T10:45:11.550Z,28.23
2023-08-11T10:47:40.148Z,28.56
2023-08-11T10:50:10.400Z,28.69
2023-08-11T10:52:37.204Z,29.39
2023-08-11T10:55:04.300Z,30.18
2023-08-11T10:57:35.471Z,30.04
2023-08-11T11:00:02.133Z,29.21
2023-08-11T11:02:30.866Z,29.26
2023-08-11T11:04:58.522Z,29.96
2023-08-11T11:07:26.151Z,30.35
2023-08-11T11:09:53.353Z,30.24
2023-08-11T11:12:20.921Z,30.00
2023-08-11T11:14:47.700Z,30.04
2023-08-11T11:17:14.393Z,29.92
2023-08-11T11:19:41.516Z,29.84
2023-08-11T11:22:09.393Z,29.11
2023-08-11T11:24:38.546Z,28.62
2023-08-11T11:27:05.923Z,28.45
2023-08-11T11:29:33.224Z,28.16
2023-08-11T11:32:07.697Z,28.16
2023-08-11T11:34:38.633Z,28.62
2023-08-11T11:37:05.482Z,28.40
2023-08-11T11:39:33.246Z,28.13
2023-08-11T11:42:07.922Z,28.08
2023-08-11T11:44:35.830Z,28.36
2023-08-11T11:47:06.281Z,28.62
2023-08-11T11:49:33.088Z,28.75
2023-08-11T11:52:01.692Z,29.17
2023-08-11T11:54:30.174Z,29.50
2023-08-11T11:57:04.901Z,29.90
2023-08-11T11:59:33.959Z,29.85
2023-08-11T12:02:04.877Z,29.54
2023-08-11T12:04:32.319Z,29.03
2023-08-11T12:06:59.171Z,28.91
2023-08-11T12:09:25.918Z,29.00
2023-08-11T12:11:55.303Z,29.11
2023-08-11T12:14:21.923Z,29.31
2023-08-11T12:16:48.648Z,29.47
2023-08-11T12:19:15.952Z,29.29
2023-08-11T12:21:43.959Z,29.35
2023-08-11T12:24:15.618Z,29.10
2023-08-11T12:26:42.428Z,28.60
2023-08-11T12:29:09.193Z,28.48
2023-08-11T12:31:35.852Z,28.50
2023-08-11T12:34:02.593Z,28.78
2023-08-11T12:36:29.622Z,28.84
2023-08-11T12:38:56.772Z,28.92
2023-08-11T12:41:24.654Z,28.90
2023-08-11T12:43:51.339Z,28.81
2023-08-11T12:46:18.019Z,28.56
2023-08-11T12:48:44.927Z,28.45
2023-08-11T12:51:11.798Z,28.29
2023-08-11T12:53:38.465Z,28.25
2023-08-11T12:56:05.590Z,28.33
2023-08-11T12:58:32.620Z,28.47
2023-08-11T13:00:59.278Z,28.83
2023-08-11T13:03:27.402Z,29.12
2023-08-11T13:05:54.166Z,29.24
2023-08-11T13:08:20.884Z,29.53
2023-08-11T13:10:47.604Z,29.49
2023-08-11T13:13:14.362Z,29.99
2023-08-11T13:15:41.401Z,29.63
2023-08-11T13:18:08.120Z,29.40
2023-08-11T13:20:34.861Z,29.12
2023-08-11T13:23:01.621Z,29.22
2023-08-11T13:25:28.387Z,29.52
2023-08-11T13:27:55.194Z,29.77
2023-08-11T13:30:23.061Z,29.86
2023-08-11T13:32:49.812Z,30.11
2023-08-11T13:35:16.607Z,30.00
2023-08-11T13:37:43.434Z,29.83
2023-08-11T13:40:10.891Z,29.97
2023-08-11T13:42:38.573Z,29.87
2023-08-11T13:45:08.111Z,30.05
2023-08-11T13:47:35.400Z,29.77
2023-08-11T13:50:02.426Z,29.71
2023-08-11T13:52:29.161Z,29.92
2023-08-11T13:55:04.158Z,29.75
2023-08-11T13:57:31.077Z,29.86
2023-08-11T13:59:59.605Z,29.78
2023-08-11T14:02:28.044Z,29.47
2023-08-11T14:04:55.688Z,29.53
2023-08-11T14:07:31.750Z,29.68
2023-08-11T14:10:00.767Z,29.62
2023-08-11T14:12:27.670Z,29.62
2023-08-11T14:14:54.640Z,29.86
2023-08-11T14:17:21.352Z,30.35
2023-08-11T14:19:48.095Z,30.55
2023-08-11T14:22:15.094Z,30.59
2023-08-11T14:24:42.141Z,30.75
2023-08-11T14:27:08.847Z,30.83
2023-08-11T14:29:35.699Z,30.93
2023-08-11T14:32:18.285Z,30.73
2023-08-11T14:34:49.435Z,31.15
2023-08-11T14:37:17.588Z,31.20
2023-08-11T14:39:46.022Z,31.18
2023-08-11T14:42:15.140Z,31.54
2023-08-11T14:44:42.889Z,31.41
2023-08-11T14:47:14.503Z,31.61
2023-08-11T14:49:42.671Z,31.86
2023-08-11T14:52:09.985Z,32.12
2023-08-11T14:54:37.399Z,32.25
2023-08-11T14:57:04.754Z,32.31
2023-08-11T14:59:32.735Z,32.48
2023-08-11T15:01:59.626Z,32.57
2023-08-11T15:04:27.945Z,32.46
2023-08-11T15:06:54.908Z,32.69
2023-08-11T15:09:21.723Z,32.81
2023-08-11T15:11:49.388Z,32.96
2023-08-11T15:14:16.990Z,32.80
2023-08-11T15:16:43.766Z,32.90
2023-08-11T15:19:10.728Z,33.18
2023-08-11T15:21:37.725Z,33.12
2023-08-11T15:24:04.799Z,33.15
2023-08-11T15:26:31.477Z,33.34
2023-08-11T15:29:00.749Z,33.27
2023-08-11T15:31:27.938Z,33.49
2023-08-11T15:33:54.769Z,33.44
2023-08-11T15:36:21.754Z,33.52
2023-08-11T15:38:50.447Z,33.56
2023-08-11T15:41:17.772Z,33.21
2023-08-11T15:43:44.441Z,33.22
2023-08-11T15:46:11.602Z,33.34
2023-08-11T15:48:38.317Z,33.25
2023-08-11T15:51:05.261Z,33.27
2023-08-11T15:53:31.954Z,33.39
2023-08-11T15:55:58.645Z,33.31
2023-08-11T15:58:25.293Z,33.43
2023-08-11T16:00:52.371Z,33.49
2023-08-11T16:03:21.398Z,33.44
2023-08-11T16:05:49.163Z,33.51
2023-08-11T16:08:15.998Z,33.75
2023-08-11T16:10:43.461Z,33.70
2023-08-11T16:13:13.082Z,33.84
2023-08-11T16:15:39.933Z,34.00
2023-08-11T16:18:10.703Z,34.06
2023-08-11T16:20:40.109Z,33.99
2023-08-11T16:23:08.009Z,34.01
2023-08-11T16:25:34.731Z,34.26
2023-08-11T16:28:01.440Z,34.33
2023-08-11T16:30:28.438Z,34.27
2023-08-11T16:32:58.443Z,34.21
2023-08-11T16:35:25.372Z,34.54
2023-08-11T16:37:52.169Z,34.59
2023-08-11T16:40:18.832Z,34.52
2023-08-11T16:42:45.493Z,34.67
2023-08-11T16:45:12.210Z,34.73
2023-08-11T16:47:39.031Z,34.80
2023-08-11T16:50:06.353Z,34.79
2023-08-11T16:52:33.096Z,34.83
2023-08-11T16:54:59.948Z,34.86
2023-08-11T16:57:26.554Z,35.01
2023-08-11T16:59:53.232Z,34.99
2023-08-11T17:02:20.122Z,35.09
2023-08-11T17:04:47.227Z,35.15
2023-08-11T17:07:13.901Z,35.23
2023-08-11T17:09:40.594Z,35.29
2023-08-11T17:12:08.144Z,35.18
2023-08-11T17:14:35.277Z,35.25
2023-08-11T17:17:01.956Z,35.37
2023-08-11T17:19:28.797Z,35.33
2023-08-11T17:21:58.358Z,35.44
2023-08-11T17:24:25.039Z,35.32
2023-08-11T17:26:52.497Z,35.55
2023-08-11T17:29:19.143Z,35.71
2023-08-11T17:31:45.902Z,35.68
2023-08-11T17:34:12.554Z,35.72
2023-08-11T17:36:39.205Z,35.94
2023-08-11T17:39:07.421Z,36.01
2023-08-11T17:41:34.068Z,36.11
2023-08-11T17:44:00.673Z,36.16
2023-08-11T17:46:29.166Z,36.24
2023-08-11T17:48:56.478Z,36.30
2023-08-11T17:51:24.008Z,36.33
2023-08-11T17:54:03.857Z,36.34
2023-08-11T17:56:39.346Z,36.52
2023-08-11T17:59:06.405Z,36.61
2023-08-11T18:01:33.388Z,36.67
2023-08-11T18:04:07.540Z,36.67
2023-08-11T18:06:36.069Z,36.74
2023-08-11T18:09:04.766Z,36.83
2023-08-11T18:11:31.680Z,36.90
2023-08-11T18:13:58.391Z,37.01
2023-08-11T18:16:27.933Z,37.04
2023-08-11T18:18:54.775Z,37.04
2023-08-11T18:21:21.755Z,37.28
2023-08-11T18:23:48.668Z,37.27
2023-08-11T18:26:17.526Z,37.34
2023-08-11T18:28:44.834Z,37.51
2023-08-11T18:31:11.692Z,37.39
2023-08-11T18:33:38.607Z,37.49
2023-08-11T18:36:05.641Z,37.76
2023-08-11T18:38:32.285Z,37.84
2023-08-11T18:40:59.164Z,38.02
2023-08-11T18:43:25.907Z,38.28
2023-08-11T18:45:52.583Z,38.37
2023-08-11T18:48:19.715Z,38.49
2023-08-11T18:50:46.683Z,38.70
2023-08-11T18:53:14.086Z,39.05
2023-08-11T18:55:40.776Z,39.10
2023-08-11T18:58:08.062Z,39.31
2023-08-11T19:00:34.756Z,39.46
2023-08-11T19:03:01.541Z,39.79
2023-08-11T19:05:28.655Z,39.91
2023-08-11T19:07:56.035Z,40.12
2023-08-11T19:10:28.705Z,40.14
2023-08-11T19:12:55.481Z,40.21
2023-08-11T19:15:22.179Z,40.53
2023-08-11T19:17:48.825Z,40.70
2023-08-11T19:20:15.552Z,41.07
2023-08-11T19:22:43.186Z,41.20
2023-08-11T19:25:11.975Z,41.30
2023-08-11T19:27:39.442Z,41.30
2023-08-11T19:30:07.566Z,41.60
2023-08-11T19:32:35.815Z,41.86
2023-08-11T19:35:04.161Z,41.88
2023-08-11T19:37:30.888Z,42.19
2023-08-11T19:39:57.622Z,42.37
2023-08-11T19:42:24.421Z,42.56
2023-08-11T19:44:51.205Z,42.83
2023-08-11T19:47:17.839Z,42.90
2023-08-11T19:49:44.510Z,43.01
2023-08-11T19:52:12.044Z,43.17
2023-08-11T19:54:39.084Z,43.27
2023-08-11T19:57:05.955Z,43.60
2023-08-11T19:59:32.646Z,43.78
2023-08-11T20:01:59.371Z,43.88
2023-08-11T20:04:28.415Z,44.00
2023-08-11T20:06:55.333Z,44.02
2023-08-11T20:09:23.480Z,44.25
2023-08-11T20:11:51.503Z,44.69
2023-08-11T20:14:19.817Z,44.74
2023-08-11T20:16:51.461Z,44.66
2023-08-11T20:19:19.479Z,44.73
2023-08-11T20:21:46.456Z,45.05
2023-08-11T20:24:13.203Z,45.37
2023-08-11T20:26:39.844Z,45.46
2023-08-11T20:29:06.909Z,45.51
2023-08-11T20:31:34.207Z,45.66
2023-08-11T20:34:01.458Z,45.70
2023-08-11T20:36:28.613Z,45.76
2023-08-11T20:38:55.222Z,46.08
2023-08-11T20:41:21.863Z,46.12
2023-08-11T20:43:49.646Z,46.43
2023-08-11T20:46:16.882Z,46.29
2023-08-11T20:48:43.622Z,46.56
2023-08-11T20:51:12.873Z,46.86
2023-08-11T20:53:40.046Z,46.80
2023-08-11T20:56:06.710Z,46.96
2023-08-11T20:58:33.550Z,47.01
2023-08-11T21:01:00.521Z,47.14
2023-08-11T21:03:27.435Z,47.51
2023-08-11T21:05:54.928Z,47.40
2023-08-11T21:08:22.315Z,47.34
2023-08-11T21:10:49.118Z,47.47
2023-08-11T21:13:16.000Z,47.66
2023-08-11T21:15:42.656Z,47.84
2023-08-11T21:18:10.799Z,47.97
2023-08-11T21:20:38.341Z,47.98
2023-08-11T21:23:06.287Z,48.10
2023-08-11T21:25:33.247Z,48.07
2023-08-11T21:28:00.319Z,48.47
2023-08-11T21:30:27.007Z,48.52
2023-08-11T21:32:53.779Z,48.62
2023-08-11T21:35:21.335Z,48.84
2023-08-11T21:37:48.951Z,48.74
2023-08-11T21:40:15.712Z,48.90
2023-08-11T21:42:42.766Z,49.08
2023-08-11T21:45:10.869Z,49.18
2023-08-11T21:47:37.486Z,49.28
2023-08-11T21:50:04.477Z,49.22
2023-08-11T21:52:31.111Z,49.31
2023-08-11T21:54:57.738Z,49.47
2023-08-11T21:57:24.401Z,49.64
2023-08-11T21:59:51.100Z,49.60
2023-08-11T22:02:17.959Z,49.78
2023-08-11T22:04:46.448Z,49.76
2023-08-11T22:07:14.058Z,50.04
2023-08-11T22:09:40.961Z,50.18
2023-08-11T22:12:07.780Z,50.16
2023-08-11T22:14:35.124Z,50.22
2023-08-11T22:17:01.757Z,50.39
2023-08-11T22:19:30.489Z,50.58
2023-08-11T22:21:57.815Z,50.58
2023-08-11T22:24:38.550Z,50.60
2023-08-11T22:27:08.143Z,50.74
2023-08-11T22:29:34.791Z,50.94
2023-08-11T22:32:02.194Z,50.99
2023-08-11T22:34:28.812Z,51.08
2023-08-11T22:36:56.213Z,51.29
2023-08-11T22:39:22.954Z,51.10
2023-08-11T22:41:49.560Z,51.18
2023-08-11T22:44:16.233Z,51.31
2023-08-11T22:46:43.403Z,51.26
2023-08-11T22:49:10.114Z,51.58
2023-08-11T22:51:36.754Z,51.59
2023-08-11T22:54:03.499Z,51.55
2023-08-11T22:56:30.132Z,51.66
2023-08-11T22:58:56.790Z,51.74
2023-08-11T23:01:23.456Z,51.99
2023-08-11T23:03:50.199Z,52.17
2023-08-11T23:06:16.993Z,52.13
2023-08-11T23:08:43.709Z,52.10
2023-08-11T23:11:10.318Z,52.32
2023-08-11T23:13:36.955Z,52.28
2023-08-11T23:16:04.271Z,52.31
2023-08-11T23:18:31.111Z,52.37
2023-08-11T23:20:57.778Z,52.55
2023-08-11T23:23:24.411Z,52.51
2023-08-11T23:25:51.249Z,52.66
2023-08-11T23:28:18.591Z,52.78
2023-08-11T23:30:45.231Z,52.88
2023-08-11T23:33:13.087Z,53.02
2023-08-11T23:35:40.147Z,53.10
2023-08-11T23:38:08.411Z,53.09
2023-08-11T23:40:35.060Z,53.09
2023-08-11T23:43:02.964Z,53.05
2023-08-11T23:45:30.734Z,53.17
2023-08-11T23:47:57.898Z,53.30
2023-08-11T23:50:24.970Z,53.33
2023-08-11T23:52:51.557Z,53.35
2023-08-11T23:55:18.187Z,53.45
2023-08-11T23:57:44.808Z,53.51
